sensor_id;sensor_type;location;lat;lon;timestamp;temperature;humidity
19000;DHT22;9633;50.980;13.850;2023-04-01T00:00:55;10.60;99.90
19000;DHT22;9633;50.980;13.850;2023-04-01T00:02:28;10.60;99.90
19000;DHT22;9633;50.980;13.850;2023-04-01T00:04:03;10.60;99.90
19000;DHT22;9633;50.980;13.850;2023-04-01T00:05:36;10.60;99.90
19000;DHT22;9633;50.980;13.850;2023-04-01T00:07:10;10.60;99.90
19000;DHT22;9633;50.980;13.850;2023-04-01T00:08:43;10.60;99.90
19000;DHT22;9633;50.980;13.850;2023-04-01T00:10:17;10.60;99.90
19000;DHT22;9633;50.980;13.850;2023-04-01T00:11:50;10.50;99.90
19000;DHT22;9633;50.980;13.850;2023-04-01T00:13:24;10.50;99.90
19000;DHT22;9633;50.980;13.850;2023-04-01T00:14:57;10.50;99.90
19000;DHT22;9633;50.980;13.850;2023-04-01T00:16:30;10.40;99.90
19000;DHT22;9633;50.980;13.850;2023-04-01T00:18:03;10.40;99.90
19000;DHT22;9633;50.980;13.850;2023-04-01T00:19:39;10.30;99.90
19000;DHT22;9633;50.980;13.850;2023-04-01T00:21:12;10.30;99.90
19000;DHT22;9633;50.980;13.850;2023-04-01T00:22:44;10.30;99.90
19000;DHT22;9633;50.980;13.850;2023-04-01T00:24:17;10.20;99.90
19000;DHT22;9633;50.980;13.850;2023-04-01T00:25:50;10.20;99.90
19000;DHT22;9633;50.980;13.850;2023-04-01T00:27:24;10.20;99.90
19000;DHT22;9633;50.980;13.850;2023-04-01T00:28:57;10.20;99.90
19000;DHT22;9633;50.980;13.850;2023-04-01T00:30:30;10.20;99.90
19000;DHT22;9633;50.980;13.850;2023-04-01T00:32:04;10.20;99.90
19000;DHT22;9633;50.980;13.850;2023-04-01T00:33:38;10.20;99.90
19000;DHT22;9633;50.980;13.850;2023-04-01T00:35:13;10.20;99.90
19000;DHT22;9633;50.980;13.850;2023-04-01T00:36:45;10.20;99.90
19000;DHT22;9633;50.980;13.850;2023-04-01T00:38:18;10.20;99.90
19000;DHT22;9633;50.980;13.850;2023-04-01T00:39:50;10.20;99.90
19000;DHT22;9633;50.980;13.850;2023-04-01T00:41:23;10.20;99.90
19000;DHT22;9633;50.980;13.850;2023-04-01T00:42:58;10.20;99.90
19000;DHT22;9633;50.980;13.850;2023-04-01T00:44:33;10.30;99.90
19000;DHT22;9633;50.980;13.850;2023-04-01T00:46:07;10.30;99.90
19000;DHT22;9633;50.980;13.850;2023-04-01T00:47:40;10.30;99.90
19000;DHT22;9633;50.980;13.850;2023-04-01T00:49:13;10.30;99.90
19000;DHT22;9633;50.980;13.850;2023-04-01T00:50:51;10.20;99.90
19000;DHT22;9633;50.980;13.850;2023-04-01T00:52:25;10.20;99.90
19000;DHT22;9633;50.980;13.850;2023-04-01T00:54:00;10.30;99.90
19000;DHT22;9633;50.980;13.850;2023-04-01T00:55:39;10.30;99.90
19000;DHT22;9633;50.980;13.850;2023-04-01T00:57:19;10.30;99.90
19000;DHT22;9633;50.980;13.850;2023-04-01T00:58:57;10.30;99.90
19000;DHT22;9633;50.980;13.850;2023-04-01T01:00:32;10.30;99.90
19000;DHT22;9633;50.980;13.850;2023-04-01T01:02:07;10.30;99.90
19000;DHT22;9633;50.980;13.850;2023-04-01T01:03:41;10.30;99.90
19000;DHT22;9633;50.980;13.850;2023-04-01T01:05:16;10.30;99.90
19000;DHT22;9633;50.980;13.850;2023-04-01T01:06:56;10.30;99.90
19000;DHT22;9633;50.980;13.850;2023-04-01T01:08:41;10.30;99.90
19000;DHT22;9633;50.980;13.850;2023-04-01T01:10:24;10.30;99.90
19000;DHT22;9633;50.980;13.850;2023-04-01T01:12:05;10.30;99.90
19000;DHT22;9633;50.980;13.850;2023-04-01T01:13:43;10.30;99.90
19000;DHT22;9633;50.980;13.850;2023-04-01T01:15:21;10.30;99.90
19000;DHT22;9633;50.980;13.850;2023-04-01T01:17:04;10.20;99.90
19000;DHT22;9633;50.980;13.850;2023-04-01T01:18:42;10.20;99.90
19000;DHT22;9633;50.980;13.850;2023-04-01T01:20:48;10.20;99.90
19000;DHT22;9633;50.980;13.850;2023-04-01T01:22:43;10.20;99.90
19000;DHT22;9633;50.980;13.850;2023-04-01T01:24:35;10.20;99.90
19000;DHT22;9633;50.980;13.850;2023-04-01T01:26:31;10.30;99.90
19000;DHT22;9633;50.980;13.850;2023-04-01T01:28:22;10.30;99.90
19000;DHT22;9633;50.980;13.850;2023-04-01T01:30:14;10.40;99.90
19000;DHT22;9633;50.980;13.850;2023-04-01T01:31:51;10.40;99.90
19000;DHT22;9633;50.980;13.850;2023-04-01T01:33:45;10.40;99.90
19000;DHT22;9633;50.980;13.850;2023-04-01T01:35:26;10.40;99.90
19000;DHT22;9633;50.980;13.850;2023-04-01T01:37:05;10.40;99.90
19000;DHT22;9633;50.980;13.850;2023-04-01T01:38:41;10.40;99.90
19000;DHT22;9633;50.980;13.850;2023-04-01T01:40:15;10.40;99.90
19000;DHT22;9633;50.980;13.850;2023-04-01T01:41:49;10.30;99.90
19000;DHT22;9633;50.980;13.850;2023-04-01T01:43:25;10.30;99.90
19000;DHT22;9633;50.980;13.850;2023-04-01T01:44:59;10.30;99.90
19000;DHT22;9633;50.980;13.850;2023-04-01T01:46:33;10.30;99.90
19000;DHT22;9633;50.980;13.850;2023-04-01T01:48:08;10.30;99.90
19000;DHT22;9633;50.980;13.850;2023-04-01T01:49:43;10.20;99.90
19000;DHT22;9633;50.980;13.850;2023-04-01T01:51:20;10.20;99.90
19000;DHT22;9633;50.980;13.850;2023-04-01T01:53:04;10.10;99.90
19000;DHT22;9633;50.980;13.850;2023-04-01T01:54:47;10.10;99.90
19000;DHT22;9633;50.980;13.850;2023-04-01T01:56:23;10.10;99.90
19000;DHT22;9633;50.980;13.850;2023-04-01T01:58:00;10.10;99.90
19000;DHT22;9633;50.980;13.850;2023-04-01T01:59:36;10.10;99.90
19000;DHT22;9633;50.980;13.850;2023-04-01T02:01:13;10.10;99.90
19000;DHT22;9633;50.980;13.850;2023-04-01T02:02:48;10.10;99.90
19000;DHT22;9633;50.980;13.850;2023-04-01T02:04:22;10.10;99.90
19000;DHT22;9633;50.980;13.850;2023-04-01T02:05:57;10.20;99.90
19000;DHT22;9633;50.980;13.850;2023-04-01T02:07:35;10.20;99.90
19000;DHT22;9633;50.980;13.850;2023-04-01T02:09:11;10.20;99.90
19000;DHT22;9633;50.980;13.850;2023-04-01T02:10:48;10.10;99.90
19000;DHT22;9633;50.980;13.850;2023-04-01T02:12:24;10.10;99.90
19000;DHT22;9633;50.980;13.850;2023-04-01T02:14:02;10.10;99.90
19000;DHT22;9633;50.980;13.850;2023-04-01T02:15:40;10.20;99.90
19000;DHT22;9633;50.980;13.850;2023-04-01T02:17:17;10.10;99.90
19000;DHT22;9633;50.980;13.850;2023-04-01T02:18:52;10.20;99.90
19000;DHT22;9633;50.980;13.850;2023-04-01T02:20:27;10.20;99.90
19000;DHT22;9633;50.980;13.850;2023-04-01T02:22:03;10.10;99.90
19000;DHT22;9633;50.980;13.850;2023-04-01T02:23:38;10.10;99.90
19000;DHT22;9633;50.980;13.850;2023-04-01T02:25:13;10.20;99.90
19000;DHT22;9633;50.980;13.850;2023-04-01T02:26:46;10.20;99.90
19000;DHT22;9633;50.980;13.850;2023-04-01T02:28:20;10.20;99.90
19000;DHT22;9633;50.980;13.850;2023-04-01T02:29:55;10.20;99.90
19000;DHT22;9633;50.980;13.850;2023-04-01T02:31:28;10.20;99.90
19000;DHT22;9633;50.980;13.850;2023-04-01T02:33:02;10.20;99.90
19000;DHT22;9633;50.980;13.850;2023-04-01T02:34:36;10.20;99.90
19000;DHT22;9633;50.980;13.850;2023-04-01T02:36:11;10.20;99.90
19000;DHT22;9633;50.980;13.850;2023-04-01T02:37:46;10.20;99.90
19000;DHT22;9633;50.980;13.850;2023-04-01T02:39:21;10.30;99.90
19000;DHT22;9633;50.980;13.850;2023-04-01T02:40:58;10.30;99.90
19000;DHT22;9633;50.980;13.850;2023-04-01T02:42:32;10.30;99.90
19000;DHT22;9633;50.980;13.850;2023-04-01T02:44:05;10.30;99.90
19000;DHT22;9633;50.980;13.850;2023-04-01T02:45:39;10.30;99.90
19000;DHT22;9633;50.980;13.850;2023-04-01T02:47:12;10.30;99.90
19000;DHT22;9633;50.980;13.850;2023-04-01T02:48:44;10.30;99.90
19000;DHT22;9633;50.980;13.850;2023-04-01T02:50:17;10.40;99.90
19000;DHT22;9633;50.980;13.850;2023-04-01T02:51:51;10.30;99.90
19000;DHT22;9633;50.980;13.850;2023-04-01T02:53:24;10.30;99.90
19000;DHT22;9633;50.980;13.850;2023-04-01T02:54:59;10.30;99.90
19000;DHT22;9633;50.980;13.850;2023-04-01T02:56:32;10.40;99.90
19000;DHT22;9633;50.980;13.850;2023-04-01T02:58:04;10.40;99.90
19000;DHT22;9633;50.980;13.850;2023-04-01T02:59:38;10.40;99.90
19000;DHT22;9633;50.980;13.850;2023-04-01T03:01:11;10.40;99.90
19000;DHT22;9633;50.980;13.850;2023-04-01T03:02:44;10.40;99.90
19000;DHT22;9633;50.980;13.850;2023-04-01T03:04:17;10.40;99.90
19000;DHT22;9633;50.980;13.850;2023-04-01T03:05:49;10.40;99.90
19000;DHT22;9633;50.980;13.850;2023-04-01T03:07:23;10.40;99.90
19000;DHT22;9633;50.980;13.850;2023-04-01T03:08:56;10.40;99.90
19000;DHT22;9633;50.980;13.850;2023-04-01T03:10:32;10.40;99.90
19000;DHT22;9633;50.980;13.850;2023-04-01T03:12:05;10.40;99.90
19000;DHT22;9633;50.980;13.850;2023-04-01T03:13:47;10.40;99.90
19000;DHT22;9633;50.980;13.850;2023-04-01T03:15:21;10.30;99.90
19000;DHT22;9633;50.980;13.850;2023-04-01T03:16:54;10.30;99.90
19000;DHT22;9633;50.980;13.850;2023-04-01T03:18:28;10.30;99.90
19000;DHT22;9633;50.980;13.850;2023-04-01T03:20:01;10.30;99.90
19000;DHT22;9633;50.980;13.850;2023-04-01T03:21:36;10.30;99.90
19000;DHT22;9633;50.980;13.850;2023-04-01T03:23:09;10.30;99.90
19000;DHT22;9633;50.980;13.850;2023-04-01T03:24:43;10.30;99.90
19000;DHT22;9633;50.980;13.850;2023-04-01T03:26:18;10.20;99.90
19000;DHT22;9633;50.980;13.850;2023-04-01T03:27:51;10.20;99.90
19000;DHT22;9633;50.980;13.850;2023-04-01T03:29:25;10.20;99.90
19000;DHT22;9633;50.980;13.850;2023-04-01T03:30:58;10.20;99.90
19000;DHT22;9633;50.980;13.850;2023-04-01T03:32:32;10.30;99.90
19000;DHT22;9633;50.980;13.850;2023-04-01T03:34:06;10.30;99.90
19000;DHT22;9633;50.980;13.850;2023-04-01T03:35:39;10.30;99.90
19000;DHT22;9633;50.980;13.850;2023-04-01T03:37:13;10.30;99.90
19000;DHT22;9633;50.980;13.850;2023-04-01T03:38:46;10.30;99.90
19000;DHT22;9633;50.980;13.850;2023-04-01T03:40:26;10.30;99.90
19000;DHT22;9633;50.980;13.850;2023-04-01T03:42:00;10.30;99.90
19000;DHT22;9633;50.980;13.850;2023-04-01T03:43:33;10.30;99.90
19000;DHT22;9633;50.980;13.850;2023-04-01T03:45:07;10.30;99.90
19000;DHT22;9633;50.980;13.850;2023-04-01T03:46:41;10.30;99.90
19000;DHT22;9633;50.980;13.850;2023-04-01T03:48:13;10.30;99.90
19000;DHT22;9633;50.980;13.850;2023-04-01T03:49:46;10.30;99.90
19000;DHT22;9633;50.980;13.850;2023-04-01T03:51:19;10.20;99.90
19000;DHT22;9633;50.980;13.850;2023-04-01T03:52:53;10.20;99.90
19000;DHT22;9633;50.980;13.850;2023-04-01T03:54:26;10.30;99.90
19000;DHT22;9633;50.980;13.850;2023-04-01T03:56:03;10.20;99.90
19000;DHT22;9633;50.980;13.850;2023-04-01T03:57:39;10.20;99.90
19000;DHT22;9633;50.980;13.850;2023-04-01T03:59:20;10.20;99.90
19000;DHT22;9633;50.980;13.850;2023-04-01T04:00:53;10.20;99.90
19000;DHT22;9633;50.980;13.850;2023-04-01T04:02:26;10.30;99.90
19000;DHT22;9633;50.980;13.850;2023-04-01T04:03:59;10.30;99.90
19000;DHT22;9633;50.980;13.850;2023-04-01T04:05:32;10.30;99.90
19000;DHT22;9633;50.980;13.850;2023-04-01T04:07:06;10.30;99.90
19000;DHT22;9633;50.980;13.850;2023-04-01T04:09:00;10.30;99.90
19000;DHT22;9633;50.980;13.850;2023-04-01T04:10:34;10.40;99.90
19000;DHT22;9633;50.980;13.850;2023-04-01T04:12:07;10.30;99.90
19000;DHT22;9633;50.980;13.850;2023-04-01T04:13:43;10.30;99.90
19000;DHT22;9633;50.980;13.850;2023-04-01T04:15:16;10.30;99.90
19000;DHT22;9633;50.980;13.850;2023-04-01T04:16:50;10.40;99.90
19000;DHT22;9633;50.980;13.850;2023-04-01T04:18:23;10.30;99.90
19000;DHT22;9633;50.980;13.850;2023-04-01T04:19:55;10.40;99.90
19000;DHT22;9633;50.980;13.850;2023-04-01T04:21:28;10.40;99.90
19000;DHT22;9633;50.980;13.850;2023-04-01T04:23:01;10.30;99.90
19000;DHT22;9633;50.980;13.850;2023-04-01T04:24:36;10.30;99.90
19000;DHT22;9633;50.980;13.850;2023-04-01T04:26:16;10.30;99.90
19000;DHT22;9633;50.980;13.850;2023-04-01T04:27:53;10.40;99.90
19000;DHT22;9633;50.980;13.850;2023-04-01T04:29:28;10.40;99.90
19000;DHT22;9633;50.980;13.850;2023-04-01T04:31:02;10.40;99.90
19000;DHT22;9633;50.980;13.850;2023-04-01T04:32:38;10.30;99.90
19000;DHT22;9633;50.980;13.850;2023-04-01T04:34:12;10.30;99.90
19000;DHT22;9633;50.980;13.850;2023-04-01T04:35:45;10.30;99.90
19000;DHT22;9633;50.980;13.850;2023-04-01T04:37:18;10.30;99.90
19000;DHT22;9633;50.980;13.850;2023-04-01T04:38:51;10.30;99.90
19000;DHT22;9633;50.980;13.850;2023-04-01T04:40:25;10.40;99.90
19000;DHT22;9633;50.980;13.850;2023-04-01T04:41:58;10.40;99.90
19000;DHT22;9633;50.980;13.850;2023-04-01T04:43:31;10.40;99.90
19000;DHT22;9633;50.980;13.850;2023-04-01T04:45:06;10.30;99.90
19000;DHT22;9633;50.980;13.850;2023-04-01T04:46:42;10.40;99.90
19000;DHT22;9633;50.980;13.850;2023-04-01T04:48:18;10.40;99.90
19000;DHT22;9633;50.980;13.850;2023-04-01T04:49:52;10.40;99.90
19000;DHT22;9633;50.980;13.850;2023-04-01T04:51:26;10.40;99.90
19000;DHT22;9633;50.980;13.850;2023-04-01T04:52:59;10.40;99.90
19000;DHT22;9633;50.980;13.850;2023-04-01T04:54:31;10.40;99.90
19000;DHT22;9633;50.980;13.850;2023-04-01T04:56:06;10.40;99.90
19000;DHT22;9633;50.980;13.850;2023-04-01T04:57:54;10.50;99.90
19000;DHT22;9633;50.980;13.850;2023-04-01T04:59:28;10.40;99.90
19000;DHT22;9633;50.980;13.850;2023-04-01T05:01:15;10.50;99.90
19000;DHT22;9633;50.980;13.850;2023-04-01T05:02:48;10.40;99.90
19000;DHT22;9633;50.980;13.850;2023-04-01T05:04:22;10.40;99.90
19000;DHT22;9633;50.980;13.850;2023-04-01T05:05:55;10.40;99.90
19000;DHT22;9633;50.980;13.850;2023-04-01T05:07:28;10.40;99.90
19000;DHT22;9633;50.980;13.850;2023-04-01T05:09:02;10.40;99.90
19000;DHT22;9633;50.980;13.850;2023-04-01T05:10:35;10.40;99.90
19000;DHT22;9633;50.980;13.850;2023-04-01T05:12:09;10.50;99.90
19000;DHT22;9633;50.980;13.850;2023-04-01T05:14:16;10.40;99.90
19000;DHT22;9633;50.980;13.850;2023-04-01T05:15:59;10.40;99.90
19000;DHT22;9633;50.980;13.850;2023-04-01T05:17:34;10.50;99.90
19000;DHT22;9633;50.980;13.850;2023-04-01T05:19:08;10.50;99.90
19000;DHT22;9633;50.980;13.850;2023-04-01T05:20:46;10.50;99.90
19000;DHT22;9633;50.980;13.850;2023-04-01T05:22:19;10.40;99.90
19000;DHT22;9633;50.980;13.850;2023-04-01T05:23:52;10.50;99.90
19000;DHT22;9633;50.980;13.850;2023-04-01T05:25:26;10.50;99.90
19000;DHT22;9633;50.980;13.850;2023-04-01T05:26:59;10.50;99.90
19000;DHT22;9633;50.980;13.850;2023-04-01T05:28:34;10.50;99.90
19000;DHT22;9633;50.980;13.850;2023-04-01T05:30:08;10.50;99.90
19000;DHT22;9633;50.980;13.850;2023-04-01T05:31:47;10.50;99.90
19000;DHT22;9633;50.980;13.850;2023-04-01T05:33:21;10.50;99.90
19000;DHT22;9633;50.980;13.850;2023-04-01T05:34:55;10.50;99.90
19000;DHT22;9633;50.980;13.850;2023-04-01T05:36:28;10.50;99.90
19000;DHT22;9633;50.980;13.850;2023-04-01T05:38:01;10.50;99.90
19000;DHT22;9633;50.980;13.850;2023-04-01T05:39:36;10.50;99.90
19000;DHT22;9633;50.980;13.850;2023-04-01T05:41:09;10.40;99.90
19000;DHT22;9633;50.980;13.850;2023-04-01T05:42:46;10.30;99.90
19000;DHT22;9633;50.980;13.850;2023-04-01T05:44:21;10.30;99.90
19000;DHT22;9633;50.980;13.850;2023-04-01T05:46:14;10.40;99.90
19000;DHT22;9633;50.980;13.850;2023-04-01T05:47:56;10.40;99.90
19000;DHT22;9633;50.980;13.850;2023-04-01T05:49:33;10.40;99.90
19000;DHT22;9633;50.980;13.850;2023-04-01T05:51:12;10.50;99.90
19000;DHT22;9633;50.980;13.850;2023-04-01T05:52:45;10.50;99.90
19000;DHT22;9633;50.980;13.850;2023-04-01T05:54:19;10.50;99.90
19000;DHT22;9633;50.980;13.850;2023-04-01T05:55:52;10.50;99.90
19000;DHT22;9633;50.980;13.850;2023-04-01T05:57:24;10.50;99.90
19000;DHT22;9633;50.980;13.850;2023-04-01T05:58:58;10.50;99.90
19000;DHT22;9633;50.980;13.850;2023-04-01T06:00:31;10.50;99.90
19000;DHT22;9633;50.980;13.850;2023-04-01T06:02:05;10.50;99.90
19000;DHT22;9633;50.980;13.850;2023-04-01T06:03:38;10.60;99.90
19000;DHT22;9633;50.980;13.850;2023-04-01T06:05:17;10.60;99.90
19000;DHT22;9633;50.980;13.850;2023-04-01T06:06:50;10.50;99.90
19000;DHT22;9633;50.980;13.850;2023-04-01T06:08:24;10.60;99.90
19000;DHT22;9633;50.980;13.850;2023-04-01T06:09:58;10.60;99.90
19000;DHT22;9633;50.980;13.850;2023-04-01T06:11:37;10.60;99.90
19000;DHT22;9633;50.980;13.850;2023-04-01T06:13:21;10.70;99.90
19000;DHT22;9633;50.980;13.850;2023-04-01T06:15:03;10.70;99.90
19000;DHT22;9633;50.980;13.850;2023-04-01T06:16:49;10.80;99.90
19000;DHT22;9633;50.980;13.850;2023-04-01T06:18:55;10.80;99.90
19000;DHT22;9633;50.980;13.850;2023-04-01T06:20:42;10.80;99.90
19000;DHT22;9633;50.980;13.850;2023-04-01T06:24:34;11.00;99.90
19000;DHT22;9633;50.980;13.850;2023-04-01T06:26:17;11.10;99.90
19000;DHT22;9633;50.980;13.850;2023-04-01T06:28:03;11.10;99.90
19000;DHT22;9633;50.980;13.850;2023-04-01T06:29:50;11.20;99.90
19000;DHT22;9633;50.980;13.850;2023-04-01T06:31:54;11.20;99.90
19000;DHT22;9633;50.980;13.850;2023-04-01T06:33:44;11.20;99.90
19000;DHT22;9633;50.980;13.850;2023-04-01T06:35:37;11.20;99.90
19000;DHT22;9633;50.980;13.850;2023-04-01T06:37:25;11.20;99.90
19000;DHT22;9633;50.980;13.850;2023-04-01T06:39:19;11.30;99.90
19000;DHT22;9633;50.980;13.850;2023-04-01T06:43:06;11.30;99.90
19000;DHT22;9633;50.980;13.850;2023-04-01T06:45:14;11.30;99.90
19000;DHT22;9633;50.980;13.850;2023-04-01T06:47:20;11.50;99.90
19000;DHT22;9633;50.980;13.850;2023-04-01T06:49:29;11.50;99.90
19000;DHT22;9633;50.980;13.850;2023-04-01T06:51:33;11.60;99.90
19000;DHT22;9633;50.980;13.850;2023-04-01T06:53:47;11.60;99.90
19000;DHT22;9633;50.980;13.850;2023-04-01T06:55:52;11.60;99.90
19000;DHT22;9633;50.980;13.850;2023-04-01T06:57:44;11.70;99.90
19000;DHT22;9633;50.980;13.850;2023-04-01T06:59:22;11.70;99.90
19000;DHT22;9633;50.980;13.850;2023-04-01T07:00:59;11.70;99.90
19000;DHT22;9633;50.980;13.850;2023-04-01T07:02:39;11.70;99.90
19000;DHT22;9633;50.980;13.850;2023-04-01T07:04:17;11.80;99.90
19000;DHT22;9633;50.980;13.850;2023-04-01T07:05:53;11.80;99.90
19000;DHT22;9633;50.980;13.850;2023-04-01T07:07:34;11.80;99.90
19000;DHT22;9633;50.980;13.850;2023-04-01T07:09:13;11.80;99.90
19000;DHT22;9633;50.980;13.850;2023-04-01T07:11:24;11.80;99.90
19000;DHT22;9633;50.980;13.850;2023-04-01T07:13:38;11.80;99.90
19000;DHT22;9633;50.980;13.850;2023-04-01T07:15:26;11.80;99.90
19000;DHT22;9633;50.980;13.850;2023-04-01T07:17:05;11.80;99.90
19000;DHT22;9633;50.980;13.850;2023-04-01T07:18:44;11.80;99.90
19000;DHT22;9633;50.980;13.850;2023-04-01T07:20:23;11.80;99.90
19000;DHT22;9633;50.980;13.850;2023-04-01T07:22:03;11.70;99.90
19000;DHT22;9633;50.980;13.850;2023-04-01T07:24:05;11.70;99.90
19000;DHT22;9633;50.980;13.850;2023-04-01T07:25:44;11.70;99.90
19000;DHT22;9633;50.980;13.850;2023-04-01T07:27:38;11.70;99.90
19000;DHT22;9633;50.980;13.850;2023-04-01T07:29:13;11.80;99.90
19000;DHT22;9633;50.980;13.850;2023-04-01T07:31:04;11.80;99.90
19000;DHT22;9633;50.980;13.850;2023-04-01T07:32:42;12.00;99.90
19000;DHT22;9633;50.980;13.850;2023-04-01T07:34:21;12.00;99.90
19000;DHT22;9633;50.980;13.850;2023-04-01T07:36:01;12.10;99.90
19000;DHT22;9633;50.980;13.850;2023-04-01T07:37:42;12.00;99.90
19000;DHT22;9633;50.980;13.850;2023-04-01T07:39:28;12.00;99.90
19000;DHT22;9633;50.980;13.850;2023-04-01T07:41:14;12.20;99.90
19000;DHT22;9633;50.980;13.850;2023-04-01T07:43:14;12.40;99.90
19000;DHT22;9633;50.980;13.850;2023-04-01T07:45:07;12.40;99.90
19000;DHT22;9633;50.980;13.850;2023-04-01T07:46:55;12.30;99.90
19000;DHT22;9633;50.980;13.850;2023-04-01T07:48:37;12.30;99.90
19000;DHT22;9633;50.980;13.850;2023-04-01T07:50:18;12.50;99.90
19000;DHT22;9633;50.980;13.850;2023-04-01T07:51:58;12.50;99.90
19000;DHT22;9633;50.980;13.850;2023-04-01T07:53:40;12.40;99.90
19000;DHT22;9633;50.980;13.850;2023-04-01T07:55:23;12.50;99.90
19000;DHT22;9633;50.980;13.850;2023-04-01T07:57:00;12.60;99.90
19000;DHT22;9633;50.980;13.850;2023-04-01T07:58:56;12.50;99.90
19000;DHT22;9633;50.980;13.850;2023-04-01T08:00:59;12.40;99.90
19000;DHT22;9633;50.980;13.850;2023-04-01T08:02:52;12.20;99.90
19000;DHT22;9633;50.980;13.850;2023-04-01T08:04:40;12.10;99.90
19000;DHT22;9633;50.980;13.850;2023-04-01T08:06:23;12.00;99.90
19000;DHT22;9633;50.980;13.850;2023-04-01T08:08:06;12.20;99.90
19000;DHT22;9633;50.980;13.850;2023-04-01T08:10:07;12.30;99.90
19000;DHT22;9633;50.980;13.850;2023-04-01T08:12:13;12.50;99.90
19000;DHT22;9633;50.980;13.850;2023-04-01T08:14:11;12.60;99.90
19000;DHT22;9633;50.980;13.850;2023-04-01T08:16:12;13.10;99.90
19000;DHT22;9633;50.980;13.850;2023-04-01T08:18:03;13.60;99.90
19000;DHT22;9633;50.980;13.850;2023-04-01T08:19:51;14.20;99.90
19000;DHT22;9633;50.980;13.850;2023-04-01T08:21:33;14.00;99.90
19000;DHT22;9633;50.980;13.850;2023-04-01T08:23:13;14.20;99.90
19000;DHT22;9633;50.980;13.850;2023-04-01T08:24:48;14.30;99.90
19000;DHT22;9633;50.980;13.850;2023-04-01T08:26:32;14.30;99.90
19000;DHT22;9633;50.980;13.850;2023-04-01T08:28:16;14.30;99.90
19000;DHT22;9633;50.980;13.850;2023-04-01T08:29:57;14.60;99.90
19000;DHT22;9633;50.980;13.850;2023-04-01T08:31:37;14.60;99.90
19000;DHT22;9633;50.980;13.850;2023-04-01T08:33:13;14.90;99.90
19000;DHT22;9633;50.980;13.850;2023-04-01T08:34:55;14.90;99.90
19000;DHT22;9633;50.980;13.850;2023-04-01T08:36:42;14.70;99.90
19000;DHT22;9633;50.980;13.850;2023-04-01T08:38:23;15.00;99.90
19000;DHT22;9633;50.980;13.850;2023-04-01T08:40:00;15.10;99.90
19000;DHT22;9633;50.980;13.850;2023-04-01T08:41:48;14.80;99.90
19000;DHT22;9633;50.980;13.850;2023-04-01T08:43:59;14.50;99.90
19000;DHT22;9633;50.980;13.850;2023-04-01T08:46:04;13.60;99.90
19000;DHT22;9633;50.980;13.850;2023-04-01T08:47:52;13.80;99.90
19000;DHT22;9633;50.980;13.850;2023-04-01T08:49:40;14.00;99.90
19000;DHT22;9633;50.980;13.850;2023-04-01T08:53:55;14.20;99.90
19000;DHT22;9633;50.980;13.850;2023-04-01T08:55:38;13.90;99.90
19000;DHT22;9633;50.980;13.850;2023-04-01T08:57:23;13.80;99.90
19000;DHT22;9633;50.980;13.850;2023-04-01T08:59:37;13.50;99.90
19000;DHT22;9633;50.980;13.850;2023-04-01T09:01:46;13.30;99.90
19000;DHT22;9633;50.980;13.850;2023-04-01T09:04:02;13.10;99.90
19000;DHT22;9633;50.980;13.850;2023-04-01T09:06:20;13.00;99.90
19000;DHT22;9633;50.980;13.850;2023-04-01T09:08:06;13.20;99.90
19000;DHT22;9633;50.980;13.850;2023-04-01T09:10:16;13.50;99.90
19000;DHT22;9633;50.980;13.850;2023-04-01T09:12:10;13.50;99.90
19000;DHT22;9633;50.980;13.850;2023-04-01T09:20:30;13.80;99.90
19000;DHT22;9633;50.980;13.850;2023-04-01T09:22:22;14.00;99.90
19000;DHT22;9633;50.980;13.850;2023-04-01T09:26:44;15.20;99.90
19000;DHT22;9633;50.980;13.850;2023-04-01T09:28:28;14.90;99.90
19000;DHT22;9633;50.980;13.850;2023-04-01T09:30:36;14.10;99.90
19000;DHT22;9633;50.980;13.850;2023-04-01T09:32:26;14.40;99.90
19000;DHT22;9633;50.980;13.850;2023-04-01T09:34:27;14.50;99.90
19000;DHT22;9633;50.980;13.850;2023-04-01T09:36:16;15.00;99.90
19000;DHT22;9633;50.980;13.850;2023-04-01T09:37:55;15.10;99.90
19000;DHT22;9633;50.980;13.850;2023-04-01T09:39:35;15.00;99.90
19000;DHT22;9633;50.980;13.850;2023-04-01T09:41:17;14.80;99.90
19000;DHT22;9633;50.980;13.850;2023-04-01T09:43:28;14.90;99.90
19000;DHT22;9633;50.980;13.850;2023-04-01T09:45:09;14.60;99.90
19000;DHT22;9633;50.980;13.850;2023-04-01T09:46:58;14.60;99.90
19000;DHT22;9633;50.980;13.850;2023-04-01T09:50:47;14.70;99.90
19000;DHT22;9633;50.980;13.850;2023-04-01T09:52:28;15.20;99.90
19000;DHT22;9633;50.980;13.850;2023-04-01T09:54:24;15.00;99.90
19000;DHT22;9633;50.980;13.850;2023-04-01T09:56:41;15.20;99.90
19000;DHT22;9633;50.980;13.850;2023-04-01T09:58:39;15.10;99.90
19000;DHT22;9633;50.980;13.850;2023-04-01T10:01:15;15.10;99.90
19000;DHT22;9633;50.980;13.850;2023-04-01T10:03:10;15.00;99.90
19000;DHT22;9633;50.980;13.850;2023-04-01T10:11:44;16.40;99.90
19000;DHT22;9633;50.980;13.850;2023-04-01T10:14:02;15.90;99.90
19000;DHT22;9633;50.980;13.850;2023-04-01T10:24:35;16.30;99.90
19000;DHT22;9633;50.980;13.850;2023-04-01T10:26:36;16.10;99.90
19000;DHT22;9633;50.980;13.850;2023-04-01T10:31:08;16.80;99.90
19000;DHT22;9633;50.980;13.850;2023-04-01T10:35:29;17.30;99.90
19000;DHT22;9633;50.980;13.850;2023-04-01T10:37:23;17.80;99.90
19000;DHT22;9633;50.980;13.850;2023-04-01T10:44:20;17.60;99.90
19000;DHT22;9633;50.980;13.850;2023-04-01T10:50:53;17.20;99.90
19000;DHT22;9633;50.980;13.850;2023-04-01T10:58:07;17.10;99.90
19000;DHT22;9633;50.980;13.850;2023-04-01T11:06:25;16.70;99.90
19000;DHT22;9633;50.980;13.850;2023-04-01T11:10:57;16.60;99.90
19000;DHT22;9633;50.980;13.850;2023-04-01T11:13:10;16.20;99.90
19000;DHT22;9633;50.980;13.850;2023-04-01T11:19:39;17.10;99.90
19000;DHT22;9633;50.980;13.850;2023-04-01T11:21:42;16.90;99.90
19000;DHT22;9633;50.980;13.850;2023-04-01T11:25:50;16.50;99.90
19000;DHT22;9633;50.980;13.850;2023-04-01T11:28:05;16.70;99.90
19000;DHT22;9633;50.980;13.850;2023-04-01T11:29:59;16.90;99.90
19000;DHT22;9633;50.980;13.850;2023-04-01T11:31:47;18.00;99.90
19000;DHT22;9633;50.980;13.850;2023-04-01T11:33:26;18.40;99.90
19000;DHT22;9633;50.980;13.850;2023-04-01T11:37:09;18.60;99.90
19000;DHT22;9633;50.980;13.850;2023-04-01T11:39:15;18.30;99.90
19000;DHT22;9633;50.980;13.850;2023-04-01T11:41:24;17.20;99.90
19000;DHT22;9633;50.980;13.850;2023-04-01T11:43:26;16.60;99.40
19000;DHT22;9633;50.980;13.850;2023-04-01T11:45:34;16.50;99.90
19000;DHT22;9633;50.980;13.850;2023-04-01T11:47:41;16.60;99.90
19000;DHT22;9633;50.980;13.850;2023-04-01T11:49:36;16.70;99.90
19000;DHT22;9633;50.980;13.850;2023-04-01T11:51:36;17.00;99.90
19000;DHT22;9633;50.980;13.850;2023-04-01T11:53:26;18.40;99.90
19000;DHT22;9633;50.980;13.850;2023-04-01T11:55:23;18.50;99.90